sensor_id;sensor_type;location;lat;lon;timestamp;P1;durP1;ratioP1;P2;durP2;ratioP2
22270;SDS011;11304;53.520;10.104;2023-12-04T00:01:42;36.08;;;19.20;;
22270;SDS011;11304;53.520;10.104;2023-12-04T00:04:08;34.63;;;18.35;;
22270;SDS011;11304;53.520;10.104;2023-12-04T00:06:34;37.50;;;18.70;;
22270;SDS011;11304;53.520;10.104;2023-12-04T00:09:00;35.75;;;18.42;;
22270;SDS011;11304;53.520;10.104;2023-12-04T00:11:27;33.67;;;18.15;;
22270;SDS011;11304;53.520;10.104;2023-12-04T00:13:53;35.67;;;19.73;;
22270;SDS011;11304;53.520;10.104;2023-12-04T00:16:19;32.90;;;19.30;;
22270;SDS011;11304;53.520;10.104;2023-12-04T00:18:45;38.30;;;19.25;;
22270;SDS011;11304;53.520;10.104;2023-12-04T00:21:12;42.95;;;21.25;;
22270;SDS011;11304;53.520;10.104;2023-12-04T00:23:38;33.50;;;18.30;;
22270;SDS011;11304;53.520;10.104;2023-12-04T00:26:04;37.83;;;19.38;;
22270;SDS011;11304;53.520;10.104;2023-12-04T00:28:31;35.28;;;18.92;;
22270;SDS011;11304;53.520;10.104;2023-12-04T00:30:57;33.33;;;19.23;;
22270;SDS011;11304;53.520;10.104;2023-12-04T00:33:23;35.58;;;19.35;;
22270;SDS011;11304;53.520;10.104;2023-12-04T00:35:49;37.30;;;19.52;;
22270;SDS011;11304;53.520;10.104;2023-12-04T00:38:15;37.00;;;19.75;;
22270;SDS011;11304;53.520;10.104;2023-12-04T00:40:41;37.45;;;20.33;;
22270;SDS011;11304;53.520;10.104;2023-12-04T00:43:07;37.58;;;20.42;;
22270;SDS011;11304;53.520;10.104;2023-12-04T00:45:33;35.97;;;19.75;;
22270;SDS011;11304;53.520;10.104;2023-12-04T00:48:00;40.25;;;20.27;;
22270;SDS011;11304;53.520;10.104;2023-12-04T00:50:26;37.70;;;19.65;;
22270;SDS011;11304;53.520;10.104;2023-12-04T00:52:52;34.47;;;18.38;;
22270;SDS011;11304;53.520;10.104;2023-12-04T00:55:18;37.40;;;20.33;;
22270;SDS011;11304;53.520;10.104;2023-12-04T00:57:44;36.03;;;19.92;;
22270;SDS011;11304;53.520;10.104;2023-12-04T01:00:10;34.80;;;19.95;;
22270;SDS011;11304;53.520;10.104;2023-12-04T01:02:37;39.35;;;20.08;;
22270;SDS011;11304;53.520;10.104;2023-12-04T01:05:03;37.85;;;19.42;;
22270;SDS011;11304;53.520;10.104;2023-12-04T01:07:29;34.63;;;18.65;;
22270;SDS011;11304;53.520;10.104;2023-12-04T01:09:55;36.25;;;19.17;;
22270;SDS011;11304;53.520;10.104;2023-12-04T01:12:21;41.92;;;21.10;;
22270;SDS011;11304;53.520;10.104;2023-12-04T01:14:47;36.63;;;20.48;;
22270;SDS011;11304;53.520;10.104;2023-12-04T01:17:14;43.67;;;20.25;;
22270;SDS011;11304;53.520;10.104;2023-12-04T01:19:40;38.33;;;19.83;;
22270;SDS011;11304;53.520;10.104;2023-12-04T01:22:06;39.78;;;21.08;;
22270;SDS011;11304;53.520;10.104;2023-12-04T01:24:33;37.50;;;20.55;;
22270;SDS011;11304;53.520;10.104;2023-12-04T01:26:59;41.17;;;20.73;;
22270;SDS011;11304;53.520;10.104;2023-12-04T01:29:25;34.60;;;19.20;;
22270;SDS011;11304;53.520;10.104;2023-12-04T01:31:51;42.33;;;21.10;;
22270;SDS011;11304;53.520;10.104;2023-12-04T01:34:17;40.88;;;20.88;;
22270;SDS011;11304;53.520;10.104;2023-12-04T01:36:43;37.47;;;21.23;;
22270;SDS011;11304;53.520;10.104;2023-12-04T01:39:09;42.38;;;21.70;;
22270;SDS011;11304;53.520;10.104;2023-12-04T01:41:35;36.92;;;19.90;;
22270;SDS011;11304;53.520;10.104;2023-12-04T01:44:02;40.67;;;21.08;;
22270;SDS011;11304;53.520;10.104;2023-12-04T01:46:28;40.47;;;22.90;;
22270;SDS011;11304;53.520;10.104;2023-12-04T01:48:54;41.67;;;21.35;;
22270;SDS011;11304;53.520;10.104;2023-12-04T01:51:20;42.03;;;22.00;;
22270;SDS011;11304;53.520;10.104;2023-12-04T01:53:47;41.63;;;20.95;;
22270;SDS011;11304;53.520;10.104;2023-12-04T01:56:13;39.40;;;20.48;;
22270;SDS011;11304;53.520;10.104;2023-12-04T01:58:40;41.70;;;21.50;;
22270;SDS011;11304;53.520;10.104;2023-12-04T02:01:07;44.72;;;22.02;;
22270;SDS011;11304;53.520;10.104;2023-12-04T02:03:33;37.25;;;19.92;;
22270;SDS011;11304;53.520;10.104;2023-12-04T02:05:59;37.45;;;19.35;;
22270;SDS011;11304;53.520;10.104;2023-12-04T02:08:27;41.00;;;21.40;;
22270;SDS011;11304;53.520;10.104;2023-12-04T02:10:54;39.53;;;20.58;;
22270;SDS011;11304;53.520;10.104;2023-12-04T02:13:20;39.90;;;20.60;;
22270;SDS011;11304;53.520;10.104;2023-12-04T02:15:46;37.03;;;19.45;;
22270;SDS011;11304;53.520;10.104;2023-12-04T02:18:15;40.85;;;20.27;;
22270;SDS011;11304;53.520;10.104;2023-12-04T02:20:41;39.97;;;20.13;;
22270;SDS011;11304;53.520;10.104;2023-12-04T02:23:08;39.20;;;20.23;;
22270;SDS011;11304;53.520;10.104;2023-12-04T02:25:34;42.03;;;20.00;;
22270;SDS011;11304;53.520;10.104;2023-12-04T02:28:01;37.03;;;20.10;;
22270;SDS011;11304;53.520;10.104;2023-12-04T02:30:28;38.97;;;18.52;;
22270;SDS011;11304;53.520;10.104;2023-12-04T02:32:56;42.97;;;21.02;;
22270;SDS011;11304;53.520;10.104;2023-12-04T02:35:23;42.80;;;19.48;;
22270;SDS011;11304;53.520;10.104;2023-12-04T02:37:50;34.20;;;19.83;;
22270;SDS011;11304;53.520;10.104;2023-12-04T02:40:16;39.95;;;19.83;;
22270;SDS011;11304;53.520;10.104;2023-12-04T02:42:42;33.75;;;18.05;;
22270;SDS011;11304;53.520;10.104;2023-12-04T02:45:10;37.50;;;18.97;;
22270;SDS011;11304;53.520;10.104;2023-12-04T02:47:36;39.90;;;20.50;;
22270;SDS011;11304;53.520;10.104;2023-12-04T02:50:02;37.30;;;19.58;;
22270;SDS011;11304;53.520;10.104;2023-12-04T02:52:29;39.25;;;19.48;;
22270;SDS011;11304;53.520;10.104;2023-12-04T02:54:55;34.70;;;18.58;;
22270;SDS011;11304;53.520;10.104;2023-12-04T02:57:21;36.20;;;19.95;;
22270;SDS011;11304;53.520;10.104;2023-12-04T02:59:47;38.25;;;19.13;;
22270;SDS011;11304;53.520;10.104;2023-12-04T03:02:13;33.47;;;18.40;;
22270;SDS011;11304;53.520;10.104;2023-12-04T03:04:39;34.17;;;17.75;;
22270;SDS011;11304;53.520;10.104;2023-12-04T03:07:05;34.17;;;18.55;;
22270;SDS011;11304;53.520;10.104;2023-12-04T03:09:31;36.95;;;18.25;;
22270;SDS011;11304;53.520;10.104;2023-12-04T03:11:57;34.78;;;18.13;;
22270;SDS011;11304;53.520;10.104;2023-12-04T03:14:23;34.90;;;16.67;;
22270;SDS011;11304;53.520;10.104;2023-12-04T03:16:50;40.25;;;17.40;;
22270;SDS011;11304;53.520;10.104;2023-12-04T03:19:16;33.47;;;16.63;;
22270;SDS011;11304;53.520;10.104;2023-12-04T03:21:42;30.45;;;16.52;;
22270;SDS011;11304;53.520;10.104;2023-12-04T03:24:08;33.67;;;17.42;;
22270;SDS011;11304;53.520;10.104;2023-12-04T03:26:34;32.22;;;17.70;;
22270;SDS011;11304;53.520;10.104;2023-12-04T03:29:01;29.73;;;15.82;;
22270;SDS011;11304;53.520;10.104;2023-12-04T03:31:27;30.75;;;16.58;;
22270;SDS011;11304;53.520;10.104;2023-12-04T03:33:53;31.73;;;16.10;;
22270;SDS011;11304;53.520;10.104;2023-12-04T03:36:19;32.72;;;16.05;;
22270;SDS011;11304;53.520;10.104;2023-12-04T03:38:45;31.48;;;17.25;;
22270;SDS011;11304;53.520;10.104;2023-12-04T03:41:15;30.98;;;16.42;;
22270;SDS011;11304;53.520;10.104;2023-12-04T03:43:41;29.58;;;15.32;;
22270;SDS011;11304;53.520;10.104;2023-12-04T03:46:07;31.25;;;16.17;;
22270;SDS011;11304;53.520;10.104;2023-12-04T03:48:34;30.60;;;16.10;;
22270;SDS011;11304;53.520;10.104;2023-12-04T03:51:00;28.75;;;15.57;;
22270;SDS011;11304;53.520;10.104;2023-12-04T03:53:26;30.65;;;16.02;;
22270;SDS011;11304;53.520;10.104;2023-12-04T03:55:52;29.23;;;15.20;;
22270;SDS011;11304;53.520;10.104;2023-12-04T03:58:18;29.40;;;15.40;;
22270;SDS011;11304;53.520;10.104;2023-12-04T04:00:45;29.52;;;15.63;;
22270;SDS011;11304;53.520;10.104;2023-12-04T04:03:11;29.52;;;14.25;;
22270;SDS011;11304;53.520;10.104;2023-12-04T04:05:37;26.48;;;15.05;;
22270;SDS011;11304;53.520;10.104;2023-12-04T04:08:03;25.70;;;14.30;;
22270;SDS011;11304;53.520;10.104;2023-12-04T04:10:31;25.88;;;14.60;;
22270;SDS011;11304;53.520;10.104;2023-12-04T04:12:57;30.73;;;15.23;;
22270;SDS011;11304;53.520;10.104;2023-12-04T04:15:23;25.40;;;14.45;;
22270;SDS011;11304;53.520;10.104;2023-12-04T04:17:49;26.77;;;13.68;;
22270;SDS011;11304;53.520;10.104;2023-12-04T04:20:15;23.77;;;13.70;;
22270;SDS011;11304;53.520;10.104;2023-12-04T04:22:42;26.02;;;13.60;;
22270;SDS011;11304;53.520;10.104;2023-12-04T04:25:08;23.25;;;13.98;;
22270;SDS011;11304;53.520;10.104;2023-12-04T04:27:34;27.75;;;14.25;;
22270;SDS011;11304;53.520;10.104;2023-12-04T04:30:01;26.13;;;14.40;;
22270;SDS011;11304;53.520;10.104;2023-12-04T04:32:27;28.45;;;15.52;;
22270;SDS011;11304;53.520;10.104;2023-12-04T04:34:53;27.45;;;14.55;;
22270;SDS011;11304;53.520;10.104;2023-12-04T04:37:19;24.27;;;13.88;;
22270;SDS011;11304;53.520;10.104;2023-12-04T04:39:46;26.13;;;13.75;;
22270;SDS011;11304;53.520;10.104;2023-12-04T04:42:12;28.13;;;15.15;;
22270;SDS011;11304;53.520;10.104;2023-12-04T04:44:38;26.92;;;14.80;;
22270;SDS011;11304;53.520;10.104;2023-12-04T04:47:04;27.00;;;14.52;;
22270;SDS011;11304;53.520;10.104;2023-12-04T04:49:30;28.20;;;14.77;;
22270;SDS011;11304;53.520;10.104;2023-12-04T04:51:56;29.83;;;15.20;;
22270;SDS011;11304;53.520;10.104;2023-12-04T04:54:22;25.45;;;12.93;;
22270;SDS011;11304;53.520;10.104;2023-12-04T04:56:48;24.88;;;14.32;;
22270;SDS011;11304;53.520;10.104;2023-12-04T04:59:16;25.77;;;14.10;;
22270;SDS011;11304;53.520;10.104;2023-12-04T05:01:42;27.85;;;14.18;;
22270;SDS011;11304;53.520;10.104;2023-12-04T05:04:08;26.83;;;14.13;;
22270;SDS011;11304;53.520;10.104;2023-12-04T05:06:34;26.35;;;14.07;;
22270;SDS011;11304;53.520;10.104;2023-12-04T05:09:00;26.83;;;14.13;;
22270;SDS011;11304;53.520;10.104;2023-12-04T05:11:26;27.55;;;15.02;;
22270;SDS011;11304;53.520;10.104;2023-12-04T05:13:52;28.58;;;15.95;;
22270;SDS011;11304;53.520;10.104;2023-12-04T05:16:18;27.08;;;14.52;;
22270;SDS011;11304;53.520;10.104;2023-12-04T05:18:44;25.83;;;14.00;;
22270;SDS011;11304;53.520;10.104;2023-12-04T05:21:11;23.23;;;14.55;;
22270;SDS011;11304;53.520;10.104;2023-12-04T05:23:37;27.52;;;15.32;;
22270;SDS011;11304;53.520;10.104;2023-12-04T05:26:04;26.98;;;14.77;;
22270;SDS011;11304;53.520;10.104;2023-12-04T05:28:31;33.03;;;16.33;;
22270;SDS011;11304;53.520;10.104;2023-12-04T05:30:57;26.63;;;14.80;;
22270;SDS011;11304;53.520;10.104;2023-12-04T05:33:23;25.90;;;14.43;;
22270;SDS011;11304;53.520;10.104;2023-12-04T05:35:49;30.40;;;15.80;;
22270;SDS011;11304;53.520;10.104;2023-12-04T05:38:18;25.60;;;14.75;;
22270;SDS011;11304;53.520;10.104;2023-12-04T05:40:44;27.98;;;15.07;;
22270;SDS011;11304;53.520;10.104;2023-12-04T05:43:11;29.38;;;15.38;;
22270;SDS011;11304;53.520;10.104;2023-12-04T05:45:38;30.52;;;15.63;;
22270;SDS011;11304;53.520;10.104;2023-12-04T05:48:05;29.15;;;16.33;;
22270;SDS011;11304;53.520;10.104;2023-12-04T05:50:31;31.02;;;16.85;;
22270;SDS011;11304;53.520;10.104;2023-12-04T05:52:57;30.00;;;16.15;;
22270;SDS011;11304;53.520;10.104;2023-12-04T05:55:23;28.45;;;16.35;;
22270;SDS011;11304;53.520;10.104;2023-12-04T05:57:50;30.30;;;16.15;;
22270;SDS011;11304;53.520;10.104;2023-12-04T06:00:16;28.30;;;15.23;;
22270;SDS011;11304;53.520;10.104;2023-12-04T06:02:42;30.70;;;16.70;;
22270;SDS011;11304;53.520;10.104;2023-12-04T06:05:09;30.48;;;16.70;;
22270;SDS011;11304;53.520;10.104;2023-12-04T06:07:36;33.25;;;17.50;;
22270;SDS011;11304;53.520;10.104;2023-12-04T06:10:03;32.85;;;17.33;;
22270;SDS011;11304;53.520;10.104;2023-12-04T06:12:33;34.83;;;17.27;;
22270;SDS011;11304;53.520;10.104;2023-12-04T06:14:59;37.50;;;18.00;;
22270;SDS011;11304;53.520;10.104;2023-12-04T06:17:25;33.40;;;17.08;;
22270;SDS011;11304;53.520;10.104;2023-12-04T06:19:52;35.38;;;17.55;;
22270;SDS011;11304;53.520;10.104;2023-12-04T06:22:19;31.38;;;16.70;;
22270;SDS011;11304;53.520;10.104;2023-12-04T06:24:46;22.45;;;12.52;;
22270;SDS011;11304;53.520;10.104;2023-12-04T06:27:16;36.13;;;18.10;;
22270;SDS011;11304;53.520;10.104;2023-12-04T06:29:45;34.65;;;18.67;;
22270;SDS011;11304;53.520;10.104;2023-12-04T06:32:11;32.90;;;16.65;;
22270;SDS011;11304;53.520;10.104;2023-12-04T06:34:38;32.70;;;17.98;;
22270;SDS011;11304;53.520;10.104;2023-12-04T06:37:08;33.30;;;17.05;;
22270;SDS011;11304;53.520;10.104;2023-12-04T06:39:34;31.85;;;17.10;;
22270;SDS011;11304;53.520;10.104;2023-12-04T06:42:03;37.60;;;18.17;;
22270;SDS011;11304;53.520;10.104;2023-12-04T06:44:29;33.00;;;17.90;;
22270;SDS011;11304;53.520;10.104;2023-12-04T06:46:55;32.92;;;17.70;;
22270;SDS011;11304;53.520;10.104;2023-12-04T06:49:24;33.58;;;17.98;;
22270;SDS011;11304;53.520;10.104;2023-12-04T06:51:51;37.53;;;17.77;;
22270;SDS011;11304;53.520;10.104;2023-12-04T06:54:17;34.60;;;17.90;;
22270;SDS011;11304;53.520;10.104;2023-12-04T06:56:43;35.40;;;18.50;;
22270;SDS011;11304;53.520;10.104;2023-12-04T06:59:09;38.70;;;19.73;;
22270;SDS011;11304;53.520;10.104;2023-12-04T07:01:36;34.65;;;18.92;;
22270;SDS011;11304;53.520;10.104;2023-12-04T07:04:02;36.53;;;18.88;;
22270;SDS011;11304;53.520;10.104;2023-12-04T07:06:34;36.00;;;17.52;;
22270;SDS011;11304;53.520;10.104;2023-12-04T07:09:00;32.58;;;16.70;;
22270;SDS011;11304;53.520;10.104;2023-12-04T07:11:26;37.75;;;18.30;;
22270;SDS011;11304;53.520;10.104;2023-12-04T07:13:53;34.30;;;17.95;;
22270;SDS011;11304;53.520;10.104;2023-12-04T07:16:19;37.58;;;19.77;;
22270;SDS011;11304;53.520;10.104;2023-12-04T07:18:45;33.35;;;16.40;;
22270;SDS011;11304;53.520;10.104;2023-12-04T07:21:11;35.63;;;18.15;;
22270;SDS011;11304;53.520;10.104;2023-12-04T07:23:37;44.25;;;19.35;;
22270;SDS011;11304;53.520;10.104;2023-12-04T07:26:03;43.40;;;19.48;;
22270;SDS011;11304;53.520;10.104;2023-12-04T07:28:31;34.60;;;17.95;;
22270;SDS011;11304;53.520;10.104;2023-12-04T07:30:57;36.22;;;17.85;;
22270;SDS011;11304;53.520;10.104;2023-12-04T07:33:23;34.10;;;17.67;;
22270;SDS011;11304;53.520;10.104;2023-12-04T07:35:50;35.38;;;18.88;;
22270;SDS011;11304;53.520;10.104;2023-12-04T07:38:17;34.15;;;18.60;;
22270;SDS011;11304;53.520;10.104;2023-12-04T07:40:44;36.58;;;17.27;;
22270;SDS011;11304;53.520;10.104;2023-12-04T07:43:10;34.70;;;17.77;;
22270;SDS011;11304;53.520;10.104;2023-12-04T07:45:36;35.63;;;17.58;;
22270;SDS011;11304;53.520;10.104;2023-12-04T07:48:03;37.70;;;17.25;;
22270;SDS011;11304;53.520;10.104;2023-12-04T07:50:29;40.78;;;17.98;;
22270;SDS011;11304;53.520;10.104;2023-12-04T07:52:56;35.72;;;18.48;;
22270;SDS011;11304;53.520;10.104;2023-12-04T07:55:22;34.65;;;18.70;;
22270;SDS011;11304;53.520;10.104;2023-12-04T07:57:48;37.22;;;18.23;;
22270;SDS011;11304;53.520;10.104;2023-12-04T08:00:16;34.90;;;18.17;;
22270;SDS011;11304;53.520;10.104;2023-12-04T08:02:43;34.10;;;17.48;;
22270;SDS011;11304;53.520;10.104;2023-12-04T08:05:10;33.67;;;17.77;;
22270;SDS011;11304;53.520;10.104;2023-12-04T08:07:37;33.33;;;16.95;;
22270;SDS011;11304;53.520;10.104;2023-12-04T08:10:03;34.67;;;18.02;;
22270;SDS011;11304;53.520;10.104;2023-12-04T08:12:30;36.15;;;17.65;;
22270;SDS011;11304;53.520;10.104;2023-12-04T08:14:56;32.33;;;17.90;;
22270;SDS011;11304;53.520;10.104;2023-12-04T08:17:22;36.10;;;18.65;;
22270;SDS011;11304;53.520;10.104;2023-12-04T08:19:48;38.28;;;19.17;;
22270;SDS011;11304;53.520;10.104;2023-12-04T08:22:14;37.40;;;18.40;;
22270;SDS011;11304;53.520;10.104;2023-12-04T08:24:40;35.38;;;18.95;;
22270;SDS011;11304;53.520;10.104;2023-12-04T08:27:07;35.70;;;18.35;;
22270;SDS011;11304;53.520;10.104;2023-12-04T08:29:33;35.45;;;18.15;;
22270;SDS011;11304;53.520;10.104;2023-12-04T08:31:59;33.28;;;17.80;;
22270;SDS011;11304;53.520;10.104;2023-12-04T08:34:26;35.10;;;19.40;;
22270;SDS011;11304;53.520;10.104;2023-12-04T08:36:52;32.78;;;17.58;;
22270;SDS011;11304;53.520;10.104;2023-12-04T08:39:18;32.58;;;17.67;;
22270;SDS011;11304;53.520;10.104;2023-12-04T08:41:45;39.00;;;19.67;;
22270;SDS011;11304;53.520;10.104;2023-12-04T08:44:14;34.60;;;17.73;;
22270;SDS011;11304;53.520;10.104;2023-12-04T08:46:41;35.95;;;19.08;;
22270;SDS011;11304;53.520;10.104;2023-12-04T08:49:07;35.17;;;19.08;;
22270;SDS011;11304;53.520;10.104;2023-12-04T08:51:33;37.33;;;19.67;;
22270;SDS011;11304;53.520;10.104;2023-12-04T08:54:00;39.38;;;19.45;;
22270;SDS011;11304;53.520;10.104;2023-12-04T08:56:26;37.45;;;19.70;;
22270;SDS011;11304;53.520;10.104;2023-12-04T08:58:52;39.00;;;20.10;;
22270;SDS011;11304;53.520;10.104;2023-12-04T09:01:18;37.20;;;20.30;;
22270;SDS011;11304;53.520;10.104;2023-12-04T09:03:44;35.75;;;19.65;;
22270;SDS011;11304;53.520;10.104;2023-12-04T09:06:10;33.47;;;18.52;;
22270;SDS011;11304;53.520;10.104;2023-12-04T09:08:36;34.70;;;19.35;;
22270;SDS011;11304;53.520;10.104;2023-12-04T09:11:03;41.10;;;20.67;;
22270;SDS011;11304;53.520;10.104;2023-12-04T09:13:29;38.05;;;19.73;;
22270;SDS011;11304;53.520;10.104;2023-12-04T09:15:56;36.50;;;20.15;;
22270;SDS011;11304;53.520;10.104;2023-12-04T09:18:22;35.45;;;18.88;;
22270;SDS011;11304;53.520;10.104;2023-12-04T09:20:48;36.97;;;20.40;;
22270;SDS011;11304;53.520;10.104;2023-12-04T09:23:15;36.15;;;19.50;;
22270;SDS011;11304;53.520;10.104;2023-12-04T09:25:41;37.30;;;20.20;;
22270;SDS011;11304;53.520;10.104;2023-12-04T09:28:07;35.58;;;19.02;;
22270;SDS011;11304;53.520;10.104;2023-12-04T09:30:33;35.92;;;19.45;;
22270;SDS011;11304;53.520;10.104;2023-12-04T09:33:00;38.70;;;19.85;;
22270;SDS011;11304;53.520;10.104;2023-12-04T09:35:26;39.95;;;20.65;;
22270;SDS011;11304;53.520;10.104;2023-12-04T09:37:52;36.58;;;20.10;;
22270;SDS011;11304;53.520;10.104;2023-12-04T09:40:19;36.17;;;19.77;;
22270;SDS011;11304;53.520;10.104;2023-12-04T09:42:45;35.20;;;19.05;;
22270;SDS011;11304;53.520;10.104;2023-12-04T09:45:12;34.78;;;19.45;;
22270;SDS011;11304;53.520;10.104;2023-12-04T09:47:38;37.25;;;18.95;;
22270;SDS011;11304;53.520;10.104;2023-12-04T09:50:04;35.92;;;18.92;;
22270;SDS011;11304;53.520;10.104;2023-12-04T09:52:31;33.40;;;19.20;;
22270;SDS011;11304;53.520;10.104;2023-12-04T09:54:57;32.05;;;18.15;;
22270;SDS011;11304;53.520;10.104;2023-12-04T09:57:23;32.53;;;18.60;;
22270;SDS011;11304;53.520;10.104;2023-12-04T09:59:49;38.45;;;19.55;;
22270;SDS011;11304;53.520;10.104;2023-12-04T10:02:17;32.90;;;17.67;;
22270;SDS011;11304;53.520;10.104;2023-12-04T10:04:43;36.55;;;18.83;;
22270;SDS011;11304;53.520;10.104;2023-12-04T10:07:09;35.00;;;18.33;;
22270;SDS011;11304;53.520;10.104;2023-12-04T10:09:35;33.45;;;17.65;;
22270;SDS011;11304;53.520;10.104;2023-12-04T10:12:01;33.88;;;18.65;;
22270;SDS011;11304;53.520;10.104;2023-12-04T10:14:27;32.20;;;18.20;;
22270;SDS011;11304;53.520;10.104;2023-12-04T10:16:53;31.60;;;18.20;;
22270;SDS011;11304;53.520;10.104;2023-12-04T10:19:23;31.00;;;17.73;;
22270;SDS011;11304;53.520;10.104;2023-12-04T10:21:54;30.45;;;17.15;;
22270;SDS011;11304;53.520;10.104;2023-12-04T10:24:28;32.72;;;17.67;;
22270;SDS011;11304;53.520;10.104;2023-12-04T10:26:54;32.50;;;17.35;;
22270;SDS011;11304;53.520;10.104;2023-12-04T10:29:21;28.92;;;16.00;;
22270;SDS011;11304;53.520;10.104;2023-12-04T10:31:49;28.80;;;16.38;;
22270;SDS011;11304;53.520;10.104;2023-12-04T10:34:17;33.00;;;17.30;;
22270;SDS011;11304;53.520;10.104;2023-12-04T10:36:44;32.08;;;16.88;;
22270;SDS011;11304;53.520;10.104;2023-12-04T10:39:10;28.00;;;16.85;;
22270;SDS011;11304;53.520;10.104;2023-12-04T10:41:38;31.30;;;17.15;;
22270;SDS011;11304;53.520;10.104;2023-12-04T10:44:04;32.15;;;16.75;;
22270;SDS011;11304;53.520;10.104;2023-12-04T10:46:31;27.40;;;15.85;;
22270;SDS011;11304;53.520;10.104;2023-12-04T10:48:58;30.42;;;17.83;;
22270;SDS011;11304;53.520;10.104;2023-12-04T10:51:25;29.52;;;16.45;;
22270;SDS011;11304;53.520;10.104;2023-12-04T10:53:52;29.55;;;16.02;;
22270;SDS011;11304;53.520;10.104;2023-12-04T10:56:25;33.20;;;18.10;;
22270;SDS011;11304;53.520;10.104;2023-12-04T10:58:53;28.02;;;16.30;;
22270;SDS011;11304;53.520;10.104;2023-12-04T11:01:19;33.45;;;16.30;;
22270;SDS011;11304;53.520;10.104;2023-12-04T11:03:47;29.50;;;15.15;;
22270;SDS011;11304;53.520;10.104;2023-12-04T11:08:40;29.40;;;15.48;;
22270;SDS011;11304;53.520;10.104;2023-12-04T11:11:19;27.15;;;15.57;;
22270;SDS011;11304;53.520;10.104;2023-12-04T11:13:50;27.33;;;16.23;;
22270;SDS011;11304;53.520;10.104;2023-12-04T11:16:22;28.40;;;15.90;;
22270;SDS011;11304;53.520;10.104;2023-12-04T11:19:36;25.85;;;15.15;;
22270;SDS011;11304;53.520;10.104;2023-12-04T11:21:42;27.83;;;15.88;;
22270;SDS011;11304;53.520;10.104;2023-12-04T11:24:09;26.83;;;15.32;;
22270;SDS011;11304;53.520;10.104;2023-12-04T11:26:36;26.25;;;15.52;;
22270;SDS011;11304;53.520;10.104;2023-12-04T11:29:02;25.30;;;14.57;;
22270;SDS011;11304;53.520;10.104;2023-12-04T11:31:29;27.02;;;16.13;;
22270;SDS011;11304;53.520;10.104;2023-12-04T11:34:00;28.30;;;16.23;;
22270;SDS011;11304;53.520;10.104;2023-12-04T11:36:27;27.42;;;15.27;;
22270;SDS011;11304;53.520;10.104;2023-12-04T11:38:53;28.63;;;16.30;;
22270;SDS011;11304;53.520;10.104;2023-12-04T11:41:22;28.38;;;15.85;;
22270;SDS011;11304;53.520;10.104;2023-12-04T11:43:49;30.77;;;16.88;;
22270;SDS011;11304;53.520;10.104;2023-12-04T11:46:19;33.88;;;16.63;;
22270;SDS011;11304;53.520;10.104;2023-12-04T11:48:48;28.35;;;16.73;;
22270;SDS011;11304;53.520;10.104;2023-12-04T11:53:58;30.80;;;16.10;;
22270;SDS011;11304;53.520;10.104;2023-12-04T11:56:24;27.20;;;15.65;;
22270;SDS011;11304;53.520;10.104;2023-12-04T11:58:51;29.02;;;16.20;;
22270;SDS011;11304;53.520;10.104;2023-12-04T12:01:17;27.88;;;16.17;;
22270;SDS011;11304;53.520;10.104;2023-12-04T12:03:43;27.17;;;15.30;;
22270;SDS011;11304;53.520;10.104;2023-12-04T12:06:10;26.33;;;15.55;;
22270;SDS011;11304;53.520;10.104;2023-12-04T12:08:36;27.38;;;16.25;;
22270;SDS011;11304;53.520;10.104;2023-12-04T12:11:02;26.25;;;15.40;;
22270;SDS011;11304;53.520;10.104;2023-12-04T12:13:28;29.00;;;16.13;;
22270;SDS011;11304;53.520;10.104;2023-12-04T12:15:54;25.27;;;14.60;;
22270;SDS011;11304;53.520;10.104;2023-12-04T12:18:23;25.55;;;14.70;;
22270;SDS011;11304;53.520;10.104;2023-12-04T12:20:49;26.55;;;15.85;;
22270;SDS011;11304;53.520;10.104;2023-12-04T12:23:15;24.00;;;15.50;;
22270;SDS011;11304;53.520;10.104;2023-12-04T12:25:42;27.20;;;15.77;;
22270;SDS011;11304;53.520;10.104;2023-12-04T12:28:09;25.08;;;14.73;;
22270;SDS011;11304;53.520;10.104;2023-12-04T12:30:35;22.60;;;12.13;;
22270;SDS011;11304;53.520;10.104;2023-12-04T12:33:02;25.50;;;14.93;;
22270;SDS011;11304;53.520;10.104;2023-12-04T12:35:28;26.60;;;15.23;;
22270;SDS011;11304;53.520;10.104;2023-12-04T12:37:54;27.13;;;15.48;;
22270;SDS011;11304;53.520;10.104;2023-12-04T12:40:21;27.17;;;15.02;;
22270;SDS011;11304;53.520;10.104;2023-12-04T12:42:47;26.20;;;15.00;;
22270;SDS011;11304;53.520;10.104;2023-12-04T12:45:14;28.73;;;15.27;;
22270;SDS011;11304;53.520;10.104;2023-12-04T12:47:42;28.38;;;16.55;;
22270;SDS011;11304;53.520;10.104;2023-12-04T12:52:38;27.67;;;15.85;;
22270;SDS011;11304;53.520;10.104;2023-12-04T12:55:05;26.88;;;15.68;;
22270;SDS011;11304;53.520;10.104;2023-12-04T12:57:32;24.88;;;14.77;;
22270;SDS011;11304;53.520;10.104;2023-12-04T12:59:58;26.42;;;15.25;;
22270;SDS011;11304;53.520;10.104;2023-12-04T13:02:24;26.10;;;15.02;;
22270;SDS011;11304;53.520;10.104;2023-12-04T13:04:50;24.52;;;14.10;;
22270;SDS011;11304;53.520;10.104;2023-12-04T13:07:16;26.45;;;15.10;;
22270;SDS011;11304;53.520;10.104;2023-12-04T13:09:43;24.50;;;13.77;;
22270;SDS011;11304;53.520;10.104;2023-12-04T13:12:10;26.00;;;14.68;;
22270;SDS011;11304;53.520;10.104;2023-12-04T13:14:36;25.85;;;14.88;;
22270;SDS011;11304;53.520;10.104;2023-12-04T13:17:03;26.27;;;15.07;;
22270;SDS011;11304;53.520;10.104;2023-12-04T13:19:29;26.58;;;15.10;;
22270;SDS011;11304;53.520;10.104;2023-12-04T13:21:59;25.70;;;14.73;;
22270;SDS011;11304;53.520;10.104;2023-12-04T13:24:25;28.40;;;14.80;;
22270;SDS011;11304;53.520;10.104;2023-12-04T13:26:52;25.50;;;14.80;;
22270;SDS011;11304;53.520;10.104;2023-12-04T13:29:18;27.05;;;15.20;;
22270;SDS011;11304;53.520;10.104;2023-12-04T13:31:45;25.35;;;15.18;;
22270;SDS011;11304;53.520;10.104;2023-12-04T13:34:14;22.00;;;14.00;;
22270;SDS011;11304;53.520;10.104;2023-12-04T13:36:40;25.08;;;14.52;;
22270;SDS011;11304;53.520;10.104;2023-12-04T13:39:06;28.13;;;15.98;;
22270;SDS011;11304;53.520;10.104;2023-12-04T13:41:42;25.60;;;15.13;;
22270;SDS011;11304;53.520;10.104;2023-12-04T13:44:27;24.92;;;14.60;;
22270;SDS011;11304;53.520;10.104;2023-12-04T13:46:53;27.25;;;16.08;;
22270;SDS011;11304;53.520;10.104;2023-12-04T13:49:19;29.98;;;16.02;;
22270;SDS011;11304;53.520;10.104;2023-12-04T13:51:45;26.52;;;14.48;;
22270;SDS011;11304;53.520;10.104;2023-12-04T13:54:14;25.88;;;15.13;;
22270;SDS011;11304;53.520;10.104;2023-12-04T13:56:46;23.48;;;14.32;;
22270;SDS011;11304;53.520;10.104;2023-12-04T13:59:21;25.73;;;15.23;;
22270;SDS011;11304;53.520;10.104;2023-12-04T14:01:49;24.92;;;14.05;;
22270;SDS011;11304;53.520;10.104;2023-12-04T14:04:16;27.52;;;15.70;;
22270;SDS011;11304;53.520;10.104;2023-12-04T14:06:42;26.63;;;14.70;;
22270;SDS011;11304;53.520;10.104;2023-12-04T14:09:08;27.27;;;14.82;;
22270;SDS011;11304;53.520;10.104;2023-12-04T14:11:44;28.50;;;14.27;;
22270;SDS011;11304;53.520;10.104;2023-12-04T14:14:10;25.23;;;15.07;;